sensor_id;sensor_type;location;lat;lon;timestamp;temperature;humidity
20398;DHT22;10358;49.590;11.030;2022-08-20T00:00:52;18.30;99.90
20398;DHT22;10358;49.590;11.030;2022-08-20T00:03:30;18.30;99.90
20398;DHT22;10358;49.590;11.030;2022-08-20T00:06:15;18.30;99.90
20398;DHT22;10358;49.590;11.030;2022-08-20T00:08:41;18.30;99.90
20398;DHT22;10358;49.590;11.030;2022-08-20T00:11:11;18.30;99.90
20398;DHT22;10358;49.590;11.030;2022-08-20T00:13:49;18.30;99.90
20398;DHT22;10358;49.590;11.030;2022-08-20T00:16:16;18.30;99.90
20398;DHT22;10358;49.590;11.030;2022-08-20T00:18:43;18.30;99.90
20398;DHT22;10358;49.590;11.030;2022-08-20T00:21:11;18.30;99.90
20398;DHT22;10358;49.590;11.030;2022-08-20T00:23:39;18.30;99.90
20398;DHT22;10358;49.590;11.030;2022-08-20T00:26:06;18.30;99.90
20398;DHT22;10358;49.590;11.030;2022-08-20T00:28:32;18.30;99.90
20398;DHT22;10358;49.590;11.030;2022-08-20T00:30:57;18.20;99.90
20398;DHT22;10358;49.590;11.030;2022-08-20T00:33:24;18.20;99.90
20398;DHT22;10358;49.590;11.030;2022-08-20T00:35:52;18.20;99.90
20398;DHT22;10358;49.590;11.030;2022-08-20T00:38:19;18.20;99.90
20398;DHT22;10358;49.590;11.030;2022-08-20T00:40:48;18.20;99.90
20398;DHT22;10358;49.590;11.030;2022-08-20T00:45:52;18.20;99.90
20398;DHT22;10358;49.590;11.030;2022-08-20T00:48:21;18.20;99.90
20398;DHT22;10358;49.590;11.030;2022-08-20T00:50:47;18.20;99.90
20398;DHT22;10358;49.590;11.030;2022-08-20T00:53:13;18.20;99.90
20398;DHT22;10358;49.590;11.030;2022-08-20T00:55:39;18.30;99.90
20398;DHT22;10358;49.590;11.030;2022-08-20T00:58:07;18.30;99.90
20398;DHT22;10358;49.590;11.030;2022-08-20T01:00:43;18.30;99.90
20398;DHT22;10358;49.590;11.030;2022-08-20T01:03:11;18.30;99.90
20398;DHT22;10358;49.590;11.030;2022-08-20T01:05:42;18.30;99.90
20398;DHT22;10358;49.590;11.030;2022-08-20T01:08:09;18.30;99.90
20398;DHT22;10358;49.590;11.030;2022-08-20T01:10:37;18.30;99.90
20398;DHT22;10358;49.590;11.030;2022-08-20T01:13:07;18.30;99.90
20398;DHT22;10358;49.590;11.030;2022-08-20T01:15:37;18.20;99.90
20398;DHT22;10358;49.590;11.030;2022-08-20T01:18:05;18.30;99.90
20398;DHT22;10358;49.590;11.030;2022-08-20T01:20:45;18.30;99.90
20398;DHT22;10358;49.590;11.030;2022-08-20T01:26:15;18.30;99.90
20398;DHT22;10358;49.590;11.030;2022-08-20T01:31:18;18.30;99.90
20398;DHT22;10358;49.590;11.030;2022-08-20T01:33:45;18.30;99.90
20398;DHT22;10358;49.590;11.030;2022-08-20T01:36:12;18.30;99.90
20398;DHT22;10358;49.590;11.030;2022-08-20T01:38:39;18.20;99.90
20398;DHT22;10358;49.590;11.030;2022-08-20T01:43:53;18.20;99.90
20398;DHT22;10358;49.590;11.030;2022-08-20T01:46:23;18.20;99.90
20398;DHT22;10358;49.590;11.030;2022-08-20T01:48:49;18.20;99.90
20398;DHT22;10358;49.590;11.030;2022-08-20T01:51:20;18.20;99.90
20398;DHT22;10358;49.590;11.030;2022-08-20T01:53:53;18.10;99.90
20398;DHT22;10358;49.590;11.030;2022-08-20T01:56:23;18.20;99.90
20398;DHT22;10358;49.590;11.030;2022-08-20T01:58:52;18.20;99.90
20398;DHT22;10358;49.590;11.030;2022-08-20T02:01:24;18.10;99.90
20398;DHT22;10358;49.590;11.030;2022-08-20T02:03:51;18.00;99.90
20398;DHT22;10358;49.590;11.030;2022-08-20T02:06:21;18.00;99.90
20398;DHT22;10358;49.590;11.030;2022-08-20T02:08:51;18.00;99.90
20398;DHT22;10358;49.590;11.030;2022-08-20T02:11:17;18.10;99.90
20398;DHT22;10358;49.590;11.030;2022-08-20T02:13:43;18.00;99.90
20398;DHT22;10358;49.590;11.030;2022-08-20T02:16:08;18.10;99.90
20398;DHT22;10358;49.590;11.030;2022-08-20T02:18:34;18.10;99.90
20398;DHT22;10358;49.590;11.030;2022-08-20T02:21:00;18.10;99.90
20398;DHT22;10358;49.590;11.030;2022-08-20T02:23:26;18.10;99.90
20398;DHT22;10358;49.590;11.030;2022-08-20T02:25:52;18.10;99.90
20398;DHT22;10358;49.590;11.030;2022-08-20T02:28:18;18.10;99.90
20398;DHT22;10358;49.590;11.030;2022-08-20T02:30:48;18.10;99.90
20398;DHT22;10358;49.590;11.030;2022-08-20T02:33:15;18.20;99.90
20398;DHT22;10358;49.590;11.030;2022-08-20T02:35:44;18.20;99.90
20398;DHT22;10358;49.590;11.030;2022-08-20T02:38:11;18.20;99.90
20398;DHT22;10358;49.590;11.030;2022-08-20T02:40:37;18.20;99.90
20398;DHT22;10358;49.590;11.030;2022-08-20T02:43:03;18.20;99.90
20398;DHT22;10358;49.590;11.030;2022-08-20T02:45:32;18.20;99.90
20398;DHT22;10358;49.590;11.030;2022-08-20T02:48:02;18.20;99.90
20398;DHT22;10358;49.590;11.030;2022-08-20T02:50:28;18.10;99.90
20398;DHT22;10358;49.590;11.030;2022-08-20T02:52:54;18.10;99.90
20398;DHT22;10358;49.590;11.030;2022-08-20T02:55:20;18.10;99.90
20398;DHT22;10358;49.590;11.030;2022-08-20T02:57:46;18.10;99.90
20398;DHT22;10358;49.590;11.030;2022-08-20T03:00:18;18.10;99.90
20398;DHT22;10358;49.590;11.030;2022-08-20T03:02:45;18.10;99.90
20398;DHT22;10358;49.590;11.030;2022-08-20T03:05:12;18.10;99.90
20398;DHT22;10358;49.590;11.030;2022-08-20T03:07:43;18.20;99.90
20398;DHT22;10358;49.590;11.030;2022-08-20T03:10:09;18.20;99.90
20398;DHT22;10358;49.590;11.030;2022-08-20T03:12:35;18.30;99.90
20398;DHT22;10358;49.590;11.030;2022-08-20T03:15:02;18.30;99.90
20398;DHT22;10358;49.590;11.030;2022-08-20T03:17:28;18.30;99.90
20398;DHT22;10358;49.590;11.030;2022-08-20T03:19:53;18.30;99.90
20398;DHT22;10358;49.590;11.030;2022-08-20T03:22:19;18.30;99.90
20398;DHT22;10358;49.590;11.030;2022-08-20T03:24:45;18.30;99.90
20398;DHT22;10358;49.590;11.030;2022-08-20T03:27:11;18.30;99.90
20398;DHT22;10358;49.590;11.030;2022-08-20T03:29:37;18.20;99.90
20398;DHT22;10358;49.590;11.030;2022-08-20T03:32:03;18.20;99.90
20398;DHT22;10358;49.590;11.030;2022-08-20T03:34:28;18.20;99.90
20398;DHT22;10358;49.590;11.030;2022-08-20T03:36:54;18.20;99.90
20398;DHT22;10358;49.590;11.030;2022-08-20T03:39:19;18.20;99.90
20398;DHT22;10358;49.590;11.030;2022-08-20T03:41:45;18.20;99.90
20398;DHT22;10358;49.590;11.030;2022-08-20T03:44:11;18.20;99.90
20398;DHT22;10358;49.590;11.030;2022-08-20T03:46:36;18.20;99.90
20398;DHT22;10358;49.590;11.030;2022-08-20T03:49:03;18.10;99.90
20398;DHT22;10358;49.590;11.030;2022-08-20T03:51:29;18.10;99.90
20398;DHT22;10358;49.590;11.030;2022-08-20T03:53:56;18.10;99.90
20398;DHT22;10358;49.590;11.030;2022-08-20T03:56:22;18.10;99.90
20398;DHT22;10358;49.590;11.030;2022-08-20T03:58:47;18.00;99.90
20398;DHT22;10358;49.590;11.030;2022-08-20T04:01:13;18.00;99.90
20398;DHT22;10358;49.590;11.030;2022-08-20T04:03:39;18.00;99.90
20398;DHT22;10358;49.590;11.030;2022-08-20T04:06:05;17.90;99.90
20398;DHT22;10358;49.590;11.030;2022-08-20T04:08:31;18.00;99.90
20398;DHT22;10358;49.590;11.030;2022-08-20T04:10:58;18.00;99.90
20398;DHT22;10358;49.590;11.030;2022-08-20T04:13:25;18.00;99.90
20398;DHT22;10358;49.590;11.030;2022-08-20T04:15:52;18.00;99.90
20398;DHT22;10358;49.590;11.030;2022-08-20T04:18:20;18.00;99.90
20398;DHT22;10358;49.590;11.030;2022-08-20T04:20:49;18.10;99.90
20398;DHT22;10358;49.590;11.030;2022-08-20T04:23:15;18.10;99.90
20398;DHT22;10358;49.590;11.030;2022-08-20T04:25:41;18.10;99.90
20398;DHT22;10358;49.590;11.030;2022-08-20T04:28:11;18.10;99.90
20398;DHT22;10358;49.590;11.030;2022-08-20T04:30:37;18.10;99.90
20398;DHT22;10358;49.590;11.030;2022-08-20T04:33:03;18.10;99.90
20398;DHT22;10358;49.590;11.030;2022-08-20T04:35:29;18.10;99.90
20398;DHT22;10358;49.590;11.030;2022-08-20T04:38:00;18.10;99.90
20398;DHT22;10358;49.590;11.030;2022-08-20T04:40:27;18.10;99.90
20398;DHT22;10358;49.590;11.030;2022-08-20T04:43:11;18.10;99.90
20398;DHT22;10358;49.590;11.030;2022-08-20T04:45:37;18.10;99.90
20398;DHT22;10358;49.590;11.030;2022-08-20T04:48:04;18.10;99.90
20398;DHT22;10358;49.590;11.030;2022-08-20T04:50:36;18.10;99.90
20398;DHT22;10358;49.590;11.030;2022-08-20T04:53:08;18.10;99.90
20398;DHT22;10358;49.590;11.030;2022-08-20T04:55:35;18.10;99.90
20398;DHT22;10358;49.590;11.030;2022-08-20T04:58:11;18.10;99.90
20398;DHT22;10358;49.590;11.030;2022-08-20T05:00:37;18.10;99.90
20398;DHT22;10358;49.590;11.030;2022-08-20T05:03:04;18.10;99.90
20398;DHT22;10358;49.590;11.030;2022-08-20T05:05:31;18.10;99.90
20398;DHT22;10358;49.590;11.030;2022-08-20T05:08:00;18.20;99.90
20398;DHT22;10358;49.590;11.030;2022-08-20T05:10:26;18.20;99.90
20398;DHT22;10358;49.590;11.030;2022-08-20T05:12:52;18.20;99.90
20398;DHT22;10358;49.590;11.030;2022-08-20T05:15:18;18.30;99.90
20398;DHT22;10358;49.590;11.030;2022-08-20T05:17:44;18.30;99.90
20398;DHT22;10358;49.590;11.030;2022-08-20T05:20:12;18.30;99.90
20398;DHT22;10358;49.590;11.030;2022-08-20T05:22:41;18.40;99.90
20398;DHT22;10358;49.590;11.030;2022-08-20T05:25:07;18.40;99.90
20398;DHT22;10358;49.590;11.030;2022-08-20T05:27:32;18.40;99.90
20398;DHT22;10358;49.590;11.030;2022-08-20T05:30:07;18.40;99.90
20398;DHT22;10358;49.590;11.030;2022-08-20T05:32:34;18.40;99.90
20398;DHT22;10358;49.590;11.030;2022-08-20T05:35:02;18.40;99.90
20398;DHT22;10358;49.590;11.030;2022-08-20T05:37:28;18.50;99.90
20398;DHT22;10358;49.590;11.030;2022-08-20T05:39:54;18.50;99.90
20398;DHT22;10358;49.590;11.030;2022-08-20T05:42:20;18.50;99.90
20398;DHT22;10358;49.590;11.030;2022-08-20T05:44:46;18.50;99.90
20398;DHT22;10358;49.590;11.030;2022-08-20T05:47:12;18.50;99.90
20398;DHT22;10358;49.590;11.030;2022-08-20T05:49:38;18.50;99.90
20398;DHT22;10358;49.590;11.030;2022-08-20T05:52:04;18.60;99.90
20398;DHT22;10358;49.590;11.030;2022-08-20T05:54:31;18.60;99.90
20398;DHT22;10358;49.590;11.030;2022-08-20T05:56:57;18.60;99.90
20398;DHT22;10358;49.590;11.030;2022-08-20T05:59:23;18.60;99.90
20398;DHT22;10358;49.590;11.030;2022-08-20T06:01:49;18.60;99.90
20398;DHT22;10358;49.590;11.030;2022-08-20T06:04:15;18.60;99.90
20398;DHT22;10358;49.590;11.030;2022-08-20T06:07:02;18.60;99.90
20398;DHT22;10358;49.590;11.030;2022-08-20T06:09:29;18.50;99.90
20398;DHT22;10358;49.590;11.030;2022-08-20T06:11:55;18.50;99.90
20398;DHT22;10358;49.590;11.030;2022-08-20T06:14:23;18.60;99.90
20398;DHT22;10358;49.590;11.030;2022-08-20T06:16:50;18.60;99.90
20398;DHT22;10358;49.590;11.030;2022-08-20T06:19:16;18.70;99.90
20398;DHT22;10358;49.590;11.030;2022-08-20T06:21:41;18.70;99.90
20398;DHT22;10358;49.590;11.030;2022-08-20T06:24:07;18.70;99.90
20398;DHT22;10358;49.590;11.030;2022-08-20T06:26:33;18.80;99.90
20398;DHT22;10358;49.590;11.030;2022-08-20T06:29:00;18.80;99.90
20398;DHT22;10358;49.590;11.030;2022-08-20T06:31:27;18.90;99.90
20398;DHT22;10358;49.590;11.030;2022-08-20T06:33:52;19.00;99.90
20398;DHT22;10358;49.590;11.030;2022-08-20T06:36:18;19.10;99.90
20398;DHT22;10358;49.590;11.030;2022-08-20T06:38:44;19.10;99.90
20398;DHT22;10358;49.590;11.030;2022-08-20T06:41:10;19.20;99.90
20398;DHT22;10358;49.590;11.030;2022-08-20T06:43:36;19.30;99.90
20398;DHT22;10358;49.590;11.030;2022-08-20T06:46:01;19.50;99.90
20398;DHT22;10358;49.590;11.030;2022-08-20T06:48:27;19.60;99.90
20398;DHT22;10358;49.590;11.030;2022-08-20T06:50:52;19.80;99.90
20398;DHT22;10358;49.590;11.030;2022-08-20T06:53:19;20.00;99.90
20398;DHT22;10358;49.590;11.030;2022-08-20T06:55:49;20.10;99.90
20398;DHT22;10358;49.590;11.030;2022-08-20T06:58:16;20.30;99.90
20398;DHT22;10358;49.590;11.030;2022-08-20T07:00:43;20.30;99.90
20398;DHT22;10358;49.590;11.030;2022-08-20T07:03:09;20.40;99.90
20398;DHT22;10358;49.590;11.030;2022-08-20T07:05:37;20.50;99.90
20398;DHT22;10358;49.590;11.030;2022-08-20T07:08:04;20.50;99.90
20398;DHT22;10358;49.590;11.030;2022-08-20T07:10:30;20.40;99.90
20398;DHT22;10358;49.590;11.030;2022-08-20T07:12:56;20.40;99.90
20398;DHT22;10358;49.590;11.030;2022-08-20T07:15:24;20.30;99.90
20398;DHT22;10358;49.590;11.030;2022-08-20T07:17:56;20.20;99.90
20398;DHT22;10358;49.590;11.030;2022-08-20T07:20:23;20.20;99.90
20398;DHT22;10358;49.590;11.030;2022-08-20T07:22:49;20.20;99.90
20398;DHT22;10358;49.590;11.030;2022-08-20T07:25:17;20.10;99.90
20398;DHT22;10358;49.590;11.030;2022-08-20T07:27:44;20.30;99.90
20398;DHT22;10358;49.590;11.030;2022-08-20T07:30:14;20.30;99.90
20398;DHT22;10358;49.590;11.030;2022-08-20T07:32:59;20.40;99.90
20398;DHT22;10358;49.590;11.030;2022-08-20T07:35:24;20.50;99.90
20398;DHT22;10358;49.590;11.030;2022-08-20T07:37:50;20.50;99.90
20398;DHT22;10358;49.590;11.030;2022-08-20T07:40:20;20.50;99.90
20398;DHT22;10358;49.590;11.030;2022-08-20T07:42:45;20.40;99.90
20398;DHT22;10358;49.590;11.030;2022-08-20T07:45:13;20.60;99.90
20398;DHT22;10358;49.590;11.030;2022-08-20T07:47:41;20.70;99.90
20398;DHT22;10358;49.590;11.030;2022-08-20T07:50:09;20.90;99.90
20398;DHT22;10358;49.590;11.030;2022-08-20T07:52:35;20.90;99.90
20398;DHT22;10358;49.590;11.030;2022-08-20T07:55:07;20.70;99.90
20398;DHT22;10358;49.590;11.030;2022-08-20T07:57:34;20.70;99.90
20398;DHT22;10358;49.590;11.030;2022-08-20T08:00:00;20.70;99.90
20398;DHT22;10358;49.590;11.030;2022-08-20T08:02:26;20.70;99.90
20398;DHT22;10358;49.590;11.030;2022-08-20T08:04:52;20.80;99.90
20398;DHT22;10358;49.590;11.030;2022-08-20T08:07:18;20.70;99.90
20398;DHT22;10358;49.590;11.030;2022-08-20T08:09:44;20.80;99.90
20398;DHT22;10358;49.590;11.030;2022-08-20T08:12:12;20.80;99.90
20398;DHT22;10358;49.590;11.030;2022-08-20T08:14:39;20.90;99.90
20398;DHT22;10358;49.590;11.030;2022-08-20T08:17:06;21.00;99.90
20398;DHT22;10358;49.590;11.030;2022-08-20T08:19:38;21.10;99.90
20398;DHT22;10358;49.590;11.030;2022-08-20T08:22:07;21.20;99.90
20398;DHT22;10358;49.590;11.030;2022-08-20T08:24:36;21.10;99.90
20398;DHT22;10358;49.590;11.030;2022-08-20T08:27:02;21.00;99.90
20398;DHT22;10358;49.590;11.030;2022-08-20T08:29:27;20.90;99.90
20398;DHT22;10358;49.590;11.030;2022-08-20T08:31:54;20.90;99.90
20398;DHT22;10358;49.590;11.030;2022-08-20T08:34:20;21.00;99.90
20398;DHT22;10358;49.590;11.030;2022-08-20T08:36:46;21.00;99.90
20398;DHT22;10358;49.590;11.030;2022-08-20T08:39:11;21.00;99.90
20398;DHT22;10358;49.590;11.030;2022-08-20T08:41:46;21.10;99.90
20398;DHT22;10358;49.590;11.030;2022-08-20T08:44:23;21.10;99.90
20398;DHT22;10358;49.590;11.030;2022-08-20T08:47:17;21.10;99.90
20398;DHT22;10358;49.590;11.030;2022-08-20T08:49:45;21.20;99.90
20398;DHT22;10358;49.590;11.030;2022-08-20T08:52:19;21.30;99.90
20398;DHT22;10358;49.590;11.030;2022-08-20T08:54:49;21.30;99.90
20398;DHT22;10358;49.590;11.030;2022-08-20T08:57:16;21.30;99.90
20398;DHT22;10358;49.590;11.030;2022-08-20T08:59:44;21.30;99.90
20398;DHT22;10358;49.590;11.030;2022-08-20T09:02:20;21.50;99.90
20398;DHT22;10358;49.590;11.030;2022-08-20T09:04:47;21.50;99.90
20398;DHT22;10358;49.590;11.030;2022-08-20T09:07:15;21.60;99.90
20398;DHT22;10358;49.590;11.030;2022-08-20T09:09:44;21.70;99.90
20398;DHT22;10358;49.590;11.030;2022-08-20T09:12:13;21.90;99.90
20398;DHT22;10358;49.590;11.030;2022-08-20T09:14:39;22.10;99.90
20398;DHT22;10358;49.590;11.030;2022-08-20T09:17:05;22.20;99.90
20398;DHT22;10358;49.590;11.030;2022-08-20T09:19:31;22.40;99.90
20398;DHT22;10358;49.590;11.030;2022-08-20T09:21:57;22.50;99.90
20398;DHT22;10358;49.590;11.030;2022-08-20T09:24:23;22.50;99.90
20398;DHT22;10358;49.590;11.030;2022-08-20T09:26:49;22.70;99.90
20398;DHT22;10358;49.590;11.030;2022-08-20T09:29:15;22.60;99.90
20398;DHT22;10358;49.590;11.030;2022-08-20T09:31:41;22.40;99.90
20398;DHT22;10358;49.590;11.030;2022-08-20T09:34:06;22.20;99.90
20398;DHT22;10358;49.590;11.030;2022-08-20T09:36:32;22.30;99.90
20398;DHT22;10358;49.590;11.030;2022-08-20T09:38:58;22.40;99.90
20398;DHT22;10358;49.590;11.030;2022-08-20T09:41:23;22.50;99.90
20398;DHT22;10358;49.590;11.030;2022-08-20T09:43:49;22.70;99.90
20398;DHT22;10358;49.590;11.030;2022-08-20T09:46:15;22.80;99.90
20398;DHT22;10358;49.590;11.030;2022-08-20T09:48:40;22.90;99.90
20398;DHT22;10358;49.590;11.030;2022-08-20T09:51:06;22.80;99.90
20398;DHT22;10358;49.590;11.030;2022-08-20T09:53:32;22.80;99.90
20398;DHT22;10358;49.590;11.030;2022-08-20T09:55:57;22.70;99.90
20398;DHT22;10358;49.590;11.030;2022-08-20T09:58:48;22.60;99.90
20398;DHT22;10358;49.590;11.030;2022-08-20T10:01:16;22.40;99.90
20398;DHT22;10358;49.590;11.030;2022-08-20T10:03:43;22.20;99.90
20398;DHT22;10358;49.590;11.030;2022-08-20T10:06:10;22.20;99.90
20398;DHT22;10358;49.590;11.030;2022-08-20T10:08:36;22.20;99.90
20398;DHT22;10358;49.590;11.030;2022-08-20T10:11:03;22.30;99.90
20398;DHT22;10358;49.590;11.030;2022-08-20T10:13:28;22.40;99.90
20398;DHT22;10358;49.590;11.030;2022-08-20T10:15:54;22.30;99.90
20398;DHT22;10358;49.590;11.030;2022-08-20T10:18:19;22.40;99.90
20398;DHT22;10358;49.590;11.030;2022-08-20T10:20:45;22.40;99.90
20398;DHT22;10358;49.590;11.030;2022-08-20T10:23:10;22.40;99.90
20398;DHT22;10358;49.590;11.030;2022-08-20T10:25:36;22.50;99.90
20398;DHT22;10358;49.590;11.030;2022-08-20T10:28:02;22.40;99.70
20398;DHT22;10358;49.590;11.030;2022-08-20T10:30:28;22.40;99.90
20398;DHT22;10358;49.590;11.030;2022-08-20T10:32:54;22.40;99.90
20398;DHT22;10358;49.590;11.030;2022-08-20T10:35:20;22.50;99.30
20398;DHT22;10358;49.590;11.030;2022-08-20T10:37:45;22.50;99.30
20398;DHT22;10358;49.590;11.030;2022-08-20T10:40:11;22.50;98.80
20398;DHT22;10358;49.590;11.030;2022-08-20T10:42:40;22.50;99.20
20398;DHT22;10358;49.590;11.030;2022-08-20T10:45:06;22.60;99.10
20398;DHT22;10358;49.590;11.030;2022-08-20T10:47:32;22.70;98.70
20398;DHT22;10358;49.590;11.030;2022-08-20T10:49:59;22.90;98.30
20398;DHT22;10358;49.590;11.030;2022-08-20T10:52:27;23.00;97.60
20398;DHT22;10358;49.590;11.030;2022-08-20T10:54:53;23.10;97.30
20398;DHT22;10358;49.590;11.030;2022-08-20T10:57:25;23.10;97.40
20398;DHT22;10358;49.590;11.030;2022-08-20T10:59:53;23.30;97.00
20398;DHT22;10358;49.590;11.030;2022-08-20T11:02:19;23.40;96.50
20398;DHT22;10358;49.590;11.030;2022-08-20T11:04:46;23.50;96.30
20398;DHT22;10358;49.590;11.030;2022-08-20T11:07:27;23.60;96.40
20398;DHT22;10358;49.590;11.030;2022-08-20T11:09:54;23.80;96.10
20398;DHT22;10358;49.590;11.030;2022-08-20T11:12:20;24.10;95.70
20398;DHT22;10358;49.590;11.030;2022-08-20T11:14:47;24.40;95.20
20398;DHT22;10358;49.590;11.030;2022-08-20T11:17:22;24.60;94.10
20398;DHT22;10358;49.590;11.030;2022-08-20T11:19:49;24.70;93.30
20398;DHT22;10358;49.590;11.030;2022-08-20T11:22:15;24.90;93.00
20398;DHT22;10358;49.590;11.030;2022-08-20T11:24:40;25.10;92.50
20398;DHT22;10358;49.590;11.030;2022-08-20T11:27:06;25.30;91.90
20398;DHT22;10358;49.590;11.030;2022-08-20T11:29:36;25.20;91.50
20398;DHT22;10358;49.590;11.030;2022-08-20T11:32:03;25.30;91.00
20398;DHT22;10358;49.590;11.030;2022-08-20T11:34:29;25.20;91.20
20398;DHT22;10358;49.590;11.030;2022-08-20T11:36:54;25.30;91.40
20398;DHT22;10358;49.590;11.030;2022-08-20T11:39:21;25.30;91.10
20398;DHT22;10358;49.590;11.030;2022-08-20T11:41:47;25.00;90.30
20398;DHT22;10358;49.590;11.030;2022-08-20T11:44:12;24.60;90.50
20398;DHT22;10358;49.590;11.030;2022-08-20T11:46:38;24.30;91.70
20398;DHT22;10358;49.590;11.030;2022-08-20T11:49:04;24.10;92.40
20398;DHT22;10358;49.590;11.030;2022-08-20T11:51:29;24.00;92.90
20398;DHT22;10358;49.590;11.030;2022-08-20T11:53:55;24.00;93.50
20398;DHT22;10358;49.590;11.030;2022-08-20T11:56:20;23.90;93.70
20398;DHT22;10358;49.590;11.030;2022-08-20T11:58:46;23.90;94.10
20398;DHT22;10358;49.590;11.030;2022-08-20T12:01:12;24.00;94.30
20398;DHT22;10358;49.590;11.030;2022-08-20T12:03:38;24.20;94.00
20398;DHT22;10358;49.590;11.030;2022-08-20T12:06:04;24.30;93.20
20398;DHT22;10358;49.590;11.030;2022-08-20T12:08:30;24.50;93.30
20398;DHT22;10358;49.590;11.030;2022-08-20T12:10:57;24.70;92.80
20398;DHT22;10358;49.590;11.030;2022-08-20T12:13:24;25.00;91.80
20398;DHT22;10358;49.590;11.030;2022-08-20T12:15:52;25.20;91.50
20398;DHT22;10358;49.590;11.030;2022-08-20T12:18:18;25.20;90.30
20398;DHT22;10358;49.590;11.030;2022-08-20T12:20:44;25.20;90.30
20398;DHT22;10358;49.590;11.030;2022-08-20T12:23:10;25.30;88.10
20398;DHT22;10358;49.590;11.030;2022-08-20T12:25:36;25.30;88.60
20398;DHT22;10358;49.590;11.030;2022-08-20T12:28:01;25.30;86.90
20398;DHT22;10358;49.590;11.030;2022-08-20T12:30:29;25.30;86.10
20398;DHT22;10358;49.590;11.030;2022-08-20T12:32:55;25.30;84.60
20398;DHT22;10358;49.590;11.030;2022-08-20T12:35:21;25.10;86.20
20398;DHT22;10358;49.590;11.030;2022-08-20T12:37:48;24.90;85.40
20398;DHT22;10358;49.590;11.030;2022-08-20T12:40:16;24.80;85.50
20398;DHT22;10358;49.590;11.030;2022-08-20T12:42:44;24.80;86.20
20398;DHT22;10358;49.590;11.030;2022-08-20T12:45:10;24.60;86.40
20398;DHT22;10358;49.590;11.030;2022-08-20T12:47:39;24.50;86.10
20398;DHT22;10358;49.590;11.030;2022-08-20T12:50:09;24.40;85.20
20398;DHT22;10358;49.590;11.030;2022-08-20T12:52:35;24.20;84.20
20398;DHT22;10358;49.590;11.030;2022-08-20T12:55:02;24.10;84.40
20398;DHT22;10358;49.590;11.030;2022-08-20T12:57:37;24.00;84.80
20398;DHT22;10358;49.590;11.030;2022-08-20T13:00:15;23.90;85.10
20398;DHT22;10358;49.590;11.030;2022-08-20T13:02:41;23.80;85.70
20398;DHT22;10358;49.590;11.030;2022-08-20T13:05:11;23.80;86.30
20398;DHT22;10358;49.590;11.030;2022-08-20T13:07:38;23.70;87.70
20398;DHT22;10358;49.590;11.030;2022-08-20T13:10:05;23.60;87.40
20398;DHT22;10358;49.590;11.030;2022-08-20T13:12:32;23.50;87.90
20398;DHT22;10358;49.590;11.030;2022-08-20T13:14:58;23.30;88.90
20398;DHT22;10358;49.590;11.030;2022-08-20T13:17:23;23.30;90.20
20398;DHT22;10358;49.590;11.030;2022-08-20T13:19:49;23.40;90.40
20398;DHT22;10358;49.590;11.030;2022-08-20T13:22:15;23.50;90.30
20398;DHT22;10358;49.590;11.030;2022-08-20T13:24:41;23.60;90.10
20398;DHT22;10358;49.590;11.030;2022-08-20T13:27:10;23.70;90.20
20398;DHT22;10358;49.590;11.030;2022-08-20T13:29:36;23.70;91.00
20398;DHT22;10358;49.590;11.030;2022-08-20T13:32:02;23.70;92.00
20398;DHT22;10358;49.590;11.030;2022-08-20T13:34:28;23.80;92.40
20398;DHT22;10358;49.590;11.030;2022-08-20T13:36:55;24.10;92.20
20398;DHT22;10358;49.590;11.030;2022-08-20T13:39:22;24.40;91.20
20398;DHT22;10358;49.590;11.030;2022-08-20T13:41:48;24.90;90.20
20398;DHT22;10358;49.590;11.030;2022-08-20T13:44:14;25.10;88.70
20398;DHT22;10358;49.590;11.030;2022-08-20T13:46:39;25.30;87.00
20398;DHT22;10358;49.590;11.030;2022-08-20T13:49:05;25.60;86.20
20398;DHT22;10358;49.590;11.030;2022-08-20T13:51:30;25.80;84.40
20398;DHT22;10358;49.590;11.030;2022-08-20T13:53:56;25.90;81.30
20398;DHT22;10358;49.590;11.030;2022-08-20T13:56:22;26.00;81.40
20398;DHT22;10358;49.590;11.030;2022-08-20T13:58:47;26.00;80.60
20398;DHT22;10358;49.590;11.030;2022-08-20T14:01:13;26.20;80.50
20398;DHT22;10358;49.590;11.030;2022-08-20T14:03:39;26.30;79.20
20398;DHT22;10358;49.590;11.030;2022-08-20T14:06:05;26.20;78.50
20398;DHT22;10358;49.590;11.030;2022-08-20T14:08:31;26.20;79.10
20398;DHT22;10358;49.590;11.030;2022-08-20T14:10:56;26.30;79.40
20398;DHT22;10358;49.590;11.030;2022-08-20T14:13:24;26.20;78.10
20398;DHT22;10358;49.590;11.030;2022-08-20T14:15:50;26.00;77.90
20398;DHT22;10358;49.590;11.030;2022-08-20T14:18:16;25.90;78.60
20398;DHT22;10358;49.590;11.030;2022-08-20T14:20:43;26.10;78.80
20398;DHT22;10358;49.590;11.030;2022-08-20T14:23:09;26.10;76.80
20398;DHT22;10358;49.590;11.030;2022-08-20T14:25:34;25.90;77.80
20398;DHT22;10358;49.590;11.030;2022-08-20T14:28:12;25.70;78.60
20398;DHT22;10358;49.590;11.030;2022-08-20T14:30:38;25.70;79.20
20398;DHT22;10358;49.590;11.030;2022-08-20T14:33:04;25.70;79.50
20398;DHT22;10358;49.590;11.030;2022-08-20T14:35:29;25.80;79.40
20398;DHT22;10358;49.590;11.030;2022-08-20T14:37:56;25.80;79.60
20398;DHT22;10358;49.590;11.030;2022-08-20T14:40:23;25.90;80.30
20398;DHT22;10358;49.590;11.030;2022-08-20T14:42:49;26.00;79.20
20398;DHT22;10358;49.590;11.030;2022-08-20T14:45:16;26.20;78.90
20398;DHT22;10358;49.590;11.030;2022-08-20T14:47:44;26.40;77.80
20398;DHT22;10358;49.590;11.030;2022-08-20T14:50:17;26.40;76.50
20398;DHT22;10358;49.590;11.030;2022-08-20T14:52:43;26.60;74.80
20398;DHT22;10358;49.590;11.030;2022-08-20T14:55:15;26.90;74.30
20398;DHT22;10358;49.590;11.030;2022-08-20T14:57:42;27.20;74.20
20398;DHT22;10358;49.590;11.030;2022-08-20T15:00:11;27.40;75.70
20398;DHT22;10358;49.590;11.030;2022-08-20T15:02:38;27.40;76.50
20398;DHT22;10358;49.590;11.030;2022-08-20T15:05:05;27.40;77.20
20398;DHT22;10358;49.590;11.030;2022-08-20T15:07:33;27.90;75.70
20398;DHT22;10358;49.590;11.030;2022-08-20T15:10:00;28.60;73.30
20398;DHT22;10358;49.590;11.030;2022-08-20T15:12:27;29.30;69.10
20398;DHT22;10358;49.590;11.030;2022-08-20T15:14:53;29.30;67.70
20398;DHT22;10358;49.590;11.030;2022-08-20T15:17:24;28.90;67.40
20398;DHT22;10358;49.590;11.030;2022-08-20T15:19:51;28.30;68.70
20398;DHT22;10358;49.590;11.030;2022-08-20T15:22:17;27.70;70.20
20398;DHT22;10358;49.590;11.030;2022-08-20T15:24:43;27.60;70.90
20398;DHT22;10358;49.590;11.030;2022-08-20T15:29:41;27.60;69.80